AAL2262 KMCO-KLGA
Flight info
| Callsign | AAL2262 |
|---|---|
| Flight time | N/A |
| Altitude | 37000 |
| Route | FATHE4 VIYAP Q87 HURTS PROUD2 |
| Aircraft | B38M/M-SDE1FGHILORVWXY/HB1 |
Departure
| Time | 2026-05-07 01:57 |
|---|---|
| Airport | Orlando International Airport (KMCO) |
Arrival
| Time | N/A |
|---|---|
| Airport | LaGuardia Airport (KLGA) |
| Time | Latitude | Longitude | Altitude | Speed | Heading |
|---|---|---|---|---|---|
| 2026-05-07 01:19 | 28.42872 | -81.31503 | 98 ft | 0 kts | 212° |
| 2026-05-07 01:21 | 28.42848 | -81.31457 | 99 ft | 0 kts | 229° |
| 2026-05-07 01:45 | 28.42851 | -81.31453 | 97 ft | 3 kts | 229° |
| 2026-05-07 01:45 | 28.42864 | -81.31436 | 97 ft | 3 kts | 229° |
| 2026-05-07 01:45 | 28.42878 | -81.31419 | 96 ft | 3 kts | 229° |
| 2026-05-07 01:45 | 28.42888 | -81.31405 | 95 ft | 0 kts | 229° |
| 2026-05-07 01:48 | 28.42888 | -81.31407 | 95 ft | 0 kts | 235° |
| 2026-05-07 01:48 | 28.42887 | -81.31410 | 96 ft | 1 kts | 250° |
| 2026-05-07 01:49 | 28.42894 | -81.31429 | 95 ft | 5 kts | 310° |
| 2026-05-07 01:49 | 28.42921 | -81.31475 | 99 ft | 8 kts | 301° |
| 2026-05-07 01:49 | 28.42954 | -81.31539 | 97 ft | 10 kts | 291° |
| 2026-05-07 01:49 | 28.42946 | -81.31622 | 99 ft | 11 kts | 255° |
| 2026-05-07 01:50 | 28.42938 | -81.31711 | 99 ft | 11 kts | 278° |
| 2026-05-07 01:50 | 28.42965 | -81.31781 | 101 ft | 10 kts | 304° |
| 2026-05-07 01:50 | 28.43008 | -81.31856 | 102 ft | 12 kts | 302° |
| 2026-05-07 01:50 | 28.43056 | -81.31944 | 102 ft | 14 kts | 302° |
| 2026-05-07 01:51 | 28.43119 | -81.31999 | 102 ft | 12 kts | 359° |
| 2026-05-07 01:51 | 28.43207 | -81.31997 | 100 ft | 14 kts | 359° |
| 2026-05-07 01:51 | 28.43315 | -81.31998 | 101 ft | 17 kts | 359° |
| 2026-05-07 01:51 | 28.43437 | -81.32000 | 102 ft | 18 kts | 359° |
| 2026-05-07 01:52 | 28.43568 | -81.32000 | 101 ft | 20 kts | 360° |
| 2026-05-07 01:52 | 28.43708 | -81.32002 | 102 ft | 21 kts | 359° |
| 2026-05-07 01:52 | 28.43857 | -81.32003 | 101 ft | 22 kts | 360° |
| 2026-05-07 01:52 | 28.44006 | -81.32005 | 101 ft | 21 kts | 359° |
| 2026-05-07 01:53 | 28.44155 | -81.32007 | 101 ft | 19 kts | 360° |
| 2026-05-07 01:53 | 28.44293 | -81.32008 | 101 ft | 21 kts | 360° |
| 2026-05-07 01:53 | 28.44432 | -81.32010 | 102 ft | 19 kts | 359° |
| 2026-05-07 01:53 | 28.44554 | -81.32011 | 100 ft | 14 kts | 0° |
| 2026-05-07 01:54 | 28.44649 | -81.32012 | 101 ft | 8 kts | 359° |
| 2026-05-07 01:54 | 28.44696 | -81.32019 | 103 ft | 7 kts | 327° |
| 2026-05-07 01:54 | 28.44714 | -81.32068 | 102 ft | 7 kts | 272° |
| 2026-05-07 01:54 | 28.44714 | -81.32128 | 101 ft | 9 kts | 269° |
| 2026-05-07 01:55 | 28.44713 | -81.32197 | 100 ft | 8 kts | 269° |
| 2026-05-07 01:55 | 28.44688 | -81.32232 | 100 ft | 6 kts | 195° |
| 2026-05-07 01:55 | 28.44650 | -81.32231 | 100 ft | 3 kts | 175° |
| 2026-05-07 01:55 | 28.44633 | -81.32231 | 102 ft | 2 kts | 179° |
| 2026-05-07 01:56 | 28.44469 | -81.32228 | 102 ft | 58 kts | 180° |
| 2026-05-07 01:56 | 28.43835 | -81.32221 | 104 ft | 122 kts | 179° |
| 2026-05-07 01:56 | 28.42807 | -81.32199 | 139 ft | 167 kts | 175° |
| 2026-05-07 01:56 | 28.41607 | -81.32146 | 640 ft | 177 kts | 176° |
| 2026-05-07 01:57 | 28.40353 | -81.32111 | 1278 ft | 183 kts | 181° |
| 2026-05-07 01:57 | 28.39089 | -81.32388 | 1879 ft | 193 kts | 202° |
| 2026-05-07 01:57 | 28.37872 | -81.33141 | 2401 ft | 205 kts | 209° |
| 2026-05-07 01:57 | 28.36625 | -81.33931 | 3125 ft | 203 kts | 208° |
| 2026-05-07 01:58 | 28.35409 | -81.34770 | 3809 ft | 205 kts | 221° |
| 2026-05-07 01:58 | 28.34438 | -81.35961 | 4496 ft | 208 kts | 229° |
| 2026-05-07 01:58 | 28.33531 | -81.37266 | 5077 ft | 218 kts | 241° |
| 2026-05-07 01:58 | 28.33185 | -81.38992 | 5371 ft | 242 kts | 272° |
| 2026-05-07 01:59 | 28.33709 | -81.40856 | 5935 ft | 250 kts | 301° |
| 2026-05-07 01:59 | 28.34692 | -81.42529 | 6621 ft | 262 kts | 303° |
| 2026-05-07 01:59 | 28.35773 | -81.44292 | 7020 ft | 280 kts | 309° |
| 2026-05-07 01:59 | 28.37370 | -81.45492 | 7734 ft | 282 kts | 344° |
| 2026-05-07 02:00 | 28.39336 | -81.45563 | 8345 ft | 290 kts | 15° |
| 2026-05-07 02:00 | 28.41195 | -81.44654 | 8999 ft | 295 kts | 24° |
| 2026-05-07 02:00 | 28.43150 | -81.43878 | 9678 ft | 298 kts | 16° |
| 2026-05-07 02:00 | 28.45155 | -81.43185 | 10329 ft | 304 kts | 16° |
| 2026-05-07 02:01 | 28.47208 | -81.42462 | 10632 ft | 321 kts | 16° |
| 2026-05-07 02:01 | 28.49391 | -81.41685 | 11028 ft | 334 kts | 16° |
| 2026-05-07 02:01 | 28.51607 | -81.40884 | 11760 ft | 334 kts | 17° |
| 2026-05-07 02:01 | 28.53829 | -81.40069 | 12476 ft | 337 kts | 16° |
| 2026-05-07 02:02 | 28.56069 | -81.39242 | 13210 ft | 340 kts | 16° |
| 2026-05-07 02:02 | 28.58330 | -81.38407 | 13953 ft | 343 kts | 16° |
| 2026-05-07 02:02 | 28.60614 | -81.37560 | 14614 ft | 347 kts | 16° |
| 2026-05-07 02:02 | 28.62897 | -81.36713 | 15248 ft | 351 kts | 15° |
| 2026-05-07 02:03 | 28.65158 | -81.35632 | 15863 ft | 358 kts | 30° |
| 2026-05-07 02:03 | 28.67059 | -81.33773 | 16501 ft | 366 kts | 48° |
| 2026-05-07 02:03 | 28.68447 | -81.31302 | 17097 ft | 373 kts | 58° |
| 2026-05-07 02:03 | 28.70019 | -81.28955 | 17578 ft | 375 kts | 40° |
| 2026-05-07 02:04 | 28.72140 | -81.27259 | 18187 ft | 372 kts | 22° |
| 2026-05-07 02:04 | 28.74608 | -81.26406 | 18635 ft | 370 kts | 2° |
| 2026-05-07 02:04 | 28.77126 | -81.26489 | 19157 ft | 364 kts | 345° |
| 2026-05-07 02:04 | 28.79558 | -81.27298 | 19642 ft | 364 kts | 339° |
| 2026-05-07 02:05 | 28.81997 | -81.28133 | 20174 ft | 366 kts | 339° |
| 2026-05-07 02:05 | 28.84484 | -81.28844 | 20698 ft | 372 kts | 348° |
| 2026-05-07 02:05 | 28.87048 | -81.29063 | 21261 ft | 375 kts | 350° |
| 2026-05-07 02:05 | 28.89670 | -81.29300 | 21761 ft | 377 kts | 350° |
| 2026-05-07 02:06 | 28.92289 | -81.29531 | 22278 ft | 379 kts | 350° |
| 2026-05-07 02:06 | 28.94937 | -81.29761 | 22795 ft | 382 kts | 349° |
| 2026-05-07 02:06 | 28.97592 | -81.29990 | 23321 ft | 384 kts | 349° |
| 2026-05-07 02:06 | 29.00271 | -81.30268 | 23782 ft | 386 kts | 348° |
| 2026-05-07 02:07 | 29.02924 | -81.30559 | 24185 ft | 388 kts | 347° |
| 2026-05-07 02:07 | 29.08337 | -81.31150 | 25008 ft | 393 kts | 347° |
| 2026-05-07 02:07 | 29.11074 | -81.31396 | 25394 ft | 397 kts | 350° |
| 2026-05-07 02:08 | 29.13851 | -81.31552 | 25805 ft | 399 kts | 349° |
| 2026-05-07 02:08 | 29.16639 | -81.31716 | 26187 ft | 401 kts | 349° |
| 2026-05-07 02:08 | 29.19403 | -81.31881 | 26562 ft | 404 kts | 349° |
| 2026-05-07 02:08 | 29.22213 | -81.32052 | 26937 ft | 406 kts | 349° |
| 2026-05-07 02:09 | 29.25048 | -81.32224 | 27310 ft | 408 kts | 349° |
| 2026-05-07 02:09 | 29.27891 | -81.32398 | 27664 ft | 411 kts | 349° |
| 2026-05-07 02:09 | 29.30765 | -81.32574 | 28010 ft | 413 kts | 349° |
| 2026-05-07 02:09 | 29.33645 | -81.32751 | 28384 ft | 415 kts | 348° |
| 2026-05-07 02:10 | 29.36548 | -81.32929 | 28732 ft | 418 kts | 348° |
| 2026-05-07 02:10 | 29.39455 | -81.33108 | 29078 ft | 420 kts | 348° |
| 2026-05-07 02:10 | 29.42351 | -81.33286 | 29420 ft | 422 kts | 348° |
| 2026-05-07 02:10 | 29.45312 | -81.33469 | 29766 ft | 425 kts | 348° |
| 2026-05-07 02:11 | 29.48274 | -81.33651 | 30087 ft | 427 kts | 348° |
| 2026-05-07 02:11 | 29.51263 | -81.33835 | 30367 ft | 429 kts | 348° |
| 2026-05-07 02:11 | 29.54215 | -81.34016 | 30634 ft | 431 kts | 348° |
| 2026-05-07 02:11 | 29.57211 | -81.34201 | 30954 ft | 432 kts | 348° |
| 2026-05-07 02:12 | 29.60226 | -81.34387 | 31238 ft | 434 kts | 348° |
| 2026-05-07 02:12 | 29.63263 | -81.34572 | 31514 ft | 436 kts | 349° |
| 2026-05-07 02:12 | 29.66271 | -81.34744 | 31804 ft | 438 kts | 349° |
| 2026-05-07 02:12 | 29.69324 | -81.34918 | 32077 ft | 439 kts | 349° |
| 2026-05-07 02:13 | 29.72402 | -81.35094 | 32346 ft | 441 kts | 349° |
| 2026-05-07 02:13 | 29.75442 | -81.35269 | 32607 ft | 443 kts | 349° |
| 2026-05-07 02:13 | 29.78549 | -81.35447 | 32874 ft | 445 kts | 349° |
| 2026-05-07 02:13 | 29.81649 | -81.35625 | 33204 ft | 444 kts | 349° |
| 2026-05-07 02:14 | 29.84699 | -81.35800 | 33561 ft | 444 kts | 349° |
| 2026-05-07 02:14 | 29.87779 | -81.35977 | 33947 ft | 443 kts | 349° |
| 2026-05-07 02:14 | 29.90858 | -81.36155 | 34267 ft | 442 kts | 349° |
| 2026-05-07 02:14 | 29.93938 | -81.36332 | 34575 ft | 441 kts | 349° |
| 2026-05-07 02:15 | 29.97012 | -81.36509 | 34872 ft | 440 kts | 349° |
| 2026-05-07 02:15 | 30.00076 | -81.36686 | 35181 ft | 439 kts | 349° |
| 2026-05-07 02:15 | 30.03082 | -81.36859 | 35480 ft | 438 kts | 349° |
| 2026-05-07 02:15 | 30.06138 | -81.37036 | 35744 ft | 437 kts | 348° |
| 2026-05-07 02:16 | 30.09177 | -81.37211 | 36003 ft | 437 kts | 348° |
| 2026-05-07 02:16 | 30.12189 | -81.37385 | 36284 ft | 436 kts | 348° |
| 2026-05-07 02:16 | 30.15237 | -81.37561 | 36433 ft | 438 kts | 348° |
| 2026-05-07 02:16 | 30.18299 | -81.37739 | 36619 ft | 439 kts | 348° |
| 2026-05-07 02:17 | 30.21347 | -81.37915 | 36845 ft | 438 kts | 348° |
| 2026-05-07 02:17 | 30.24393 | -81.38092 | 37041 ft | 438 kts | 348° |
| 2026-05-07 02:17 | 30.30446 | -81.38442 | 37047 ft | 435 kts | 348° |
| 2026-05-07 02:18 | 30.36501 | -81.38794 | 37064 ft | 436 kts | 348° |
| 2026-05-07 02:18 | 30.42537 | -81.39144 | 37067 ft | 435 kts | 348° |
| 2026-05-07 02:19 | 30.48606 | -81.39475 | 37062 ft | 436 kts | 348° |
| 2026-05-07 02:19 | 30.54681 | -81.39796 | 37063 ft | 436 kts | 348° |
| 2026-05-07 02:20 | 30.60706 | -81.40116 | 37065 ft | 436 kts | 348° |
| 2026-05-07 02:20 | 30.66768 | -81.40437 | 37062 ft | 436 kts | 348° |
| 2026-05-07 02:21 | 30.72824 | -81.40759 | 37061 ft | 438 kts | 349° |
| 2026-05-07 02:21 | 30.78929 | -81.41084 | 37055 ft | 438 kts | 349° |
| 2026-05-07 02:22 | 30.85051 | -81.41410 | 37048 ft | 438 kts | 349° |
| 2026-05-07 02:22 | 30.91114 | -81.41734 | 37039 ft | 438 kts | 349° |
| 2026-05-07 02:23 | 30.97201 | -81.42059 | 37042 ft | 439 kts | 349° |
| 2026-05-07 02:23 | 31.03295 | -81.42385 | 37042 ft | 441 kts | 349° |
| 2026-05-07 02:24 | 31.09432 | -81.42713 | 37031 ft | 440 kts | 349° |
| 2026-05-07 02:24 | 31.14529 | -81.42987 | 37033 ft | 440 kts | 349° |
| 2026-05-07 02:25 | 31.21658 | -81.43368 | 37047 ft | 441 kts | 349° |
| 2026-05-07 02:25 | 31.26808 | -81.42487 | 37036 ft | 465 kts | 14° |
| 2026-05-07 02:26 | 31.32830 | -81.39399 | 37034 ft | 474 kts | 17° |
| 2026-05-07 02:26 | 31.38851 | -81.36180 | 37039 ft | 475 kts | 17° |
| 2026-05-07 02:27 | 31.44804 | -81.32951 | 37040 ft | 475 kts | 17° |
| 2026-05-07 02:27 | 31.50815 | -81.29684 | 37057 ft | 475 kts | 17° |
| 2026-05-07 02:28 | 31.56791 | -81.26432 | 37033 ft | 476 kts | 17° |
| 2026-05-07 02:28 | 31.62810 | -81.23150 | 37021 ft | 474 kts | 17° |
| 2026-05-07 02:29 | 31.68806 | -81.19877 | 37016 ft | 475 kts | 17° |
| 2026-05-07 02:29 | 31.74777 | -81.16613 | 37008 ft | 475 kts | 17° |
| 2026-05-07 02:30 | 31.80789 | -81.13321 | 37000 ft | 477 kts | 17° |
| 2026-05-07 02:30 | 31.86771 | -81.10042 | 36994 ft | 477 kts | 17° |
| 2026-05-07 02:31 | 31.92792 | -81.06736 | 36987 ft | 477 kts | 17° |
| 2026-05-07 02:31 | 31.98815 | -81.03423 | 36988 ft | 477 kts | 17° |
| 2026-05-07 02:32 | 32.04829 | -81.00063 | 37005 ft | 479 kts | 17° |
| 2026-05-07 02:32 | 32.10832 | -80.96705 | 36998 ft | 480 kts | 17° |
| 2026-05-07 02:33 | 32.16891 | -80.93312 | 37020 ft | 480 kts | 17° |
| 2026-05-07 02:33 | 32.22895 | -80.89946 | 37031 ft | 480 kts | 17° |
| 2026-05-07 02:34 | 32.28915 | -80.86564 | 37046 ft | 477 kts | 17° |
| 2026-05-07 02:34 | 32.34950 | -80.83169 | 37008 ft | 480 kts | 17° |
| 2026-05-07 02:35 | 32.40945 | -80.79792 | 37005 ft | 480 kts | 17° |
| 2026-05-07 02:35 | 32.46987 | -80.76383 | 37007 ft | 480 kts | 17° |
| 2026-05-07 02:36 | 32.52989 | -80.72992 | 37011 ft | 480 kts | 17° |
| 2026-05-07 02:36 | 32.59031 | -80.69574 | 37012 ft | 481 kts | 17° |
| 2026-05-07 02:37 | 32.65043 | -80.66167 | 37011 ft | 481 kts | 17° |
| 2026-05-07 02:37 | 32.71096 | -80.62707 | 37007 ft | 482 kts | 18° |
| 2026-05-07 02:38 | 32.77081 | -80.59146 | 37014 ft | 482 kts | 18° |
| 2026-05-07 02:38 | 32.83085 | -80.55582 | 37021 ft | 483 kts | 17° |
| 2026-05-07 02:39 | 32.89109 | -80.52003 | 37016 ft | 482 kts | 16° |
| 2026-05-07 02:39 | 32.95102 | -80.48435 | 36998 ft | 480 kts | 16° |
| 2026-05-07 02:40 | 33.01062 | -80.44882 | 37000 ft | 481 kts | 16° |
| 2026-05-07 02:40 | 33.07042 | -80.41312 | 36995 ft | 481 kts | 16° |
| 2026-05-07 02:41 | 33.13038 | -80.37726 | 36989 ft | 481 kts | 16° |
| 2026-05-07 02:41 | 33.19000 | -80.34156 | 36990 ft | 481 kts | 16° |
| 2026-05-07 02:42 | 33.25001 | -80.30557 | 36995 ft | 481 kts | 17° |
| 2026-05-07 02:42 | 33.30944 | -80.26987 | 37023 ft | 481 kts | 15° |
| 2026-05-07 02:43 | 33.36936 | -80.23382 | 36989 ft | 481 kts | 15° |
| 2026-05-07 02:43 | 33.42926 | -80.19773 | 36989 ft | 481 kts | 15° |
| 2026-05-07 02:44 | 33.48911 | -80.16161 | 36992 ft | 481 kts | 15° |
| 2026-05-07 02:44 | 33.54877 | -80.12555 | 36987 ft | 478 kts | 15° |
| 2026-05-07 02:45 | 33.60825 | -80.08955 | 36981 ft | 478 kts | 14° |
| 2026-05-07 02:45 | 33.66737 | -80.05369 | 36989 ft | 479 kts | 14° |
| 2026-05-07 02:46 | 33.72679 | -80.01758 | 36997 ft | 479 kts | 14° |
| 2026-05-07 02:46 | 33.78631 | -79.98137 | 36987 ft | 479 kts | 14° |
| 2026-05-07 02:47 | 33.84578 | -79.94513 | 36995 ft | 478 kts | 14° |
| 2026-05-07 02:47 | 33.90505 | -79.90895 | 36980 ft | 478 kts | 14° |
| 2026-05-07 02:48 | 33.96398 | -79.87292 | 36968 ft | 478 kts | 14° |
| 2026-05-07 02:48 | 34.02338 | -79.83656 | 36973 ft | 478 kts | 14° |
| 2026-05-07 02:49 | 34.08273 | -79.80016 | 36984 ft | 478 kts | 14° |
| 2026-05-07 02:49 | 34.14195 | -79.76379 | 36974 ft | 476 kts | 14° |
| 2026-05-07 02:50 | 34.20067 | -79.72766 | 36975 ft | 476 kts | 14° |
| 2026-05-07 02:50 | 34.25974 | -79.69126 | 36966 ft | 476 kts | 14° |
| 2026-05-07 02:51 | 34.31795 | -79.65534 | 36996 ft | 476 kts | 14° |
| 2026-05-07 02:51 | 34.37711 | -79.61877 | 36971 ft | 477 kts | 14° |
| 2026-05-07 02:52 | 34.43633 | -79.58211 | 36961 ft | 477 kts | 14° |
| 2026-05-07 02:52 | 34.49550 | -79.54540 | 36939 ft | 476 kts | 14° |
| 2026-05-07 02:53 | 34.55422 | -79.50839 | 36973 ft | 481 kts | 17° |
| 2026-05-07 02:53 | 34.61295 | -79.46895 | 36967 ft | 482 kts | 16° |
| 2026-05-07 02:54 | 34.67185 | -79.42961 | 36969 ft | 482 kts | 16° |
| 2026-05-07 02:54 | 34.72997 | -79.39044 | 36974 ft | 477 kts | 17° |
| 2026-05-07 02:55 | 34.78789 | -79.35124 | 36987 ft | 476 kts | 17° |
| 2026-05-07 02:55 | 34.84591 | -79.31192 | 36975 ft | 481 kts | 17° |
| 2026-05-07 02:56 | 34.90443 | -79.27219 | 36970 ft | 481 kts | 17° |
| 2026-05-07 02:56 | 34.96300 | -79.23237 | 36961 ft | 481 kts | 17° |
| 2026-05-07 02:57 | 35.02154 | -79.19250 | 36975 ft | 481 kts | 17° |
| 2026-05-07 02:57 | 35.07994 | -79.15266 | 36949 ft | 484 kts | 17° |
| 2026-05-07 02:58 | 35.13884 | -79.11241 | 36952 ft | 485 kts | 17° |
| 2026-05-07 02:58 | 35.19773 | -79.07210 | 36979 ft | 485 kts | 17° |
| 2026-05-07 02:59 | 35.25626 | -79.03197 | 37003 ft | 483 kts | 17° |
| 2026-05-07 02:59 | 35.31516 | -78.99153 | 36979 ft | 486 kts | 17° |
| 2026-05-07 03:00 | 35.37422 | -78.95090 | 36961 ft | 485 kts | 17° |
| 2026-05-07 03:00 | 35.43290 | -78.91046 | 36964 ft | 486 kts | 17° |
| 2026-05-07 03:01 | 35.49194 | -78.86971 | 36966 ft | 486 kts | 17° |
| 2026-05-07 03:01 | 35.55056 | -78.82918 | 36969 ft | 486 kts | 17° |
| 2026-05-07 03:02 | 35.60953 | -78.78832 | 36961 ft | 486 kts | 17° |
| 2026-05-07 03:02 | 35.66855 | -78.74737 | 36949 ft | 486 kts | 17° |
| 2026-05-07 03:03 | 35.72719 | -78.70662 | 36965 ft | 487 kts | 16° |
| 2026-05-07 03:03 | 35.78577 | -78.66581 | 36934 ft | 489 kts | 17° |
| 2026-05-07 03:04 | 35.84459 | -78.62481 | 36936 ft | 487 kts | 17° |
| 2026-05-07 03:04 | 35.90369 | -78.58351 | 36954 ft | 487 kts | 17° |
| 2026-05-07 03:05 | 35.96272 | -78.54220 | 36992 ft | 488 kts | 16° |
| 2026-05-07 03:05 | 36.02188 | -78.50073 | 36970 ft | 489 kts | 16° |
| 2026-05-07 03:06 | 36.08111 | -78.45913 | 36978 ft | 490 kts | 16° |
| 2026-05-07 03:06 | 36.14045 | -78.41738 | 36972 ft | 490 kts | 16° |
| 2026-05-07 03:07 | 36.18976 | -78.38264 | 37007 ft | 490 kts | 15° |